Time;durP1;ratioP1;P1;durP2;ratioP2;P2;SDS_P1;SDS_P2;PMS_P1;PMS_P2;Temp;Humidity;BMP_temperature;BMP_pressure;BME280_temperature;BME280_humidity;BME280_pressure;Samples;Min_cycle;Max_cycle;Signal;HPM_P1;HPM_P2
2022/11/02 00:02:18;;;;;;;9.35;2.10;;;13.10;99.90;;;;;;5084944;28;20032;-77
2022/11/02 00:04:45;;;;;;;10.07;2.08;;;13.10;99.90;;;;;;5103003;27;20110;-77
2022/11/02 00:07:12;;;;;;;9.63;2.30;;;13.00;99.90;;;;;;5104091;27;20027;-76
2022/11/02 00:09:42;;;;;;;11.05;1.77;;;13.00;99.90;;;;;;5085727;28;20027;-76
2022/11/02 00:12:08;;;;;;;11.15;2.38;;;13.00;99.90;;;;;;5087847;28;20103;-77
2022/11/02 00:14:33;;;;;;;9.57;2.05;;;13.00;99.90;;;;;;5101165;28;20133;-75
2022/11/02 00:16:59;;;;;;;7.10;1.77;;;13.00;99.90;;;;;;5106246;27;20085;-75
2022/11/02 00:19:25;;;;;;;12.02;2.25;;;13.00;99.90;;;;;;5086819;28;20074;-75
2022/11/02 00:21:50;;;;;;;9.85;1.75;;;13.00;99.90;;;;;;5101891;28;20034;-75
2022/11/02 00:24:16;;;;;;;13.02;2.15;;;13.00;99.90;;;;;;5087177;28;20043;-77
2022/11/02 00:26:42;;;;;;;11.80;2.70;;;13.00;99.90;;;;;;5103709;28;20020;-77
2022/11/02 00:29:08;;;;;;;8.25;1.70;;;13.00;99.90;;;;;;5092307;27;20031;-77
2022/11/02 00:31:34;;;;;;;8.13;1.70;;;13.00;99.90;;;;;;5104215;27;20028;-76
2022/11/02 00:33:59;;;;;;;9.23;1.80;;;13.00;99.90;;;;;;5094128;28;20383;-76
2022/11/02 00:36:26;;;;;;;12.82;2.28;;;12.90;99.90;;;;;;5109355;28;20040;-80
2022/11/02 00:38:52;;;;;;;8.93;1.95;;;13.00;99.90;;;;;;5096925;28;20024;-76
2022/11/02 00:41:20;;;;;;;10.60;2.00;;;13.00;99.90;;;;;;5104417;28;20486;-78
2022/11/02 00:43:45;;;;;;;9.30;1.50;;;13.00;99.90;;;;;;5098257;28;20073;-76
2022/11/02 00:46:11;;;;;;;12.68;2.42;;;12.90;99.90;;;;;;5102349;27;20028;-76
2022/11/02 00:48:37;;;;;;;6.72;1.55;;;12.90;99.90;;;;;;5099039;28;20023;-76
2022/11/02 00:51:02;;;;;;;9.48;2.22;;;12.90;99.90;;;;;;5088498;28;20038;-75
2022/11/02 00:53:29;;;;;;;12.32;1.95;;;12.90;99.90;;;;;;5101220;28;20023;-76
2022/11/02 00:55:57;;;;;;;6.32;2.50;;;12.90;99.90;;;;;;5090492;28;20020;-73
2022/11/02 00:58:23;;;;;;;5.28;1.20;;;12.90;99.90;;;;;;5105915;28;20491;-74
2022/11/02 01:00:48;;;;;;;6.13;1.55;;;12.90;99.90;;;;;;5064207;28;20054;-75
2022/11/02 01:03:14;;;;;;;10.77;1.90;;;12.90;99.90;;;;;;5101387;28;20034;-75
2022/11/02 01:05:40;;;;;;;11.05;1.88;;;12.90;99.90;;;;;;5097522;28;20024;-74
2022/11/02 01:08:05;;;;;;;10.23;2.10;;;12.90;99.90;;;;;;5078796;28;20063;-78
2022/11/02 01:10:32;;;;;;;11.55;2.15;;;12.90;99.90;;;;;;5087571;28;20179;-76
2022/11/02 01:12:57;;;;;;;9.20;1.98;;;12.90;99.90;;;;;;5085179;28;20036;-77
2022/11/02 01:15:23;;;;;;;11.57;2.10;;;12.90;99.90;;;;;;5090919;28;20020;-76
2022/11/02 01:17:49;;;;;;;9.48;1.83;;;12.90;99.90;;;;;;5084676;28;20089;-74
2022/11/02 01:20:14;;;;;;;5.75;1.60;;;12.90;99.90;;;;;;5104065;28;20016;-76
2022/11/02 01:22:40;;;;;;;10.98;2.25;;;12.90;99.90;;;;;;5101124;28;20037;-76
2022/11/02 01:25:06;;;;;;;9.38;1.70;;;12.90;99.90;;;;;;5085060;28;20024;-74
2022/11/02 01:27:32;;;;;;;10.38;1.83;;;12.90;99.90;;;;;;5110848;27;20039;-76
2022/11/02 01:29:59;;;;;;;7.68;1.63;;;12.90;99.90;;;;;;5108219;27;20043;-75
2022/11/02 01:32:27;;;;;;;12.57;2.05;;;12.80;99.90;;;;;;5086143;28;20111;-80
2022/11/02 01:34:53;;;;;;;9.63;1.98;;;12.80;99.90;;;;;;5101316;28;20027;-74
2022/11/02 01:37:18;;;;;;;6.05;1.85;;;12.80;99.90;;;;;;5107162;27;20036;-78
2022/11/02 01:39:44;;;;;;;15.23;2.08;;;12.80;99.90;;;;;;5097022;27;20081;-76
2022/11/02 01:42:21;;;;;;;9.00;1.80;;;12.80;99.90;;;;;;5100599;28;20057;-75
2022/11/02 01:44:48;;;;;;;9.65;2.10;;;12.80;99.90;;;;;;5071819;28;20065;-74
2022/11/02 01:47:26;;;;;;;9.25;1.63;;;12.80;99.90;;;;;;5089335;28;20592;-76
2022/11/02 01:50:16;;;;;;;9.13;1.77;;;12.80;99.90;;;;;;5103835;27;20031;-74
2022/11/02 01:52:42;;;;;;;11.45;1.85;;;12.80;99.90;;;;;;5099298;27;20031;-76
2022/11/02 01:55:10;;;;;;;7.35;1.67;;;12.80;99.90;;;;;;5087289;28;20093;-75
2022/11/02 01:57:38;;;;;;;11.60;2.50;;;12.80;99.90;;;;;;5097562;27;20044;-75
2022/11/02 02:00:13;;;;;;;12.65;2.45;;;12.80;99.90;;;;;;5112869;27;20031;-75
2022/11/02 02:02:58;;;;;;;10.43;1.88;;;12.80;99.90;;;;;;5105491;27;20430;-75
2022/11/02 02:05:24;;;;;;;8.32;1.83;;;12.80;99.90;;;;;;5104974;28;21728;-77
2022/11/02 02:07:51;;;;;;;14.63;2.42;;;12.80;99.90;;;;;;5098344;27;20084;-73
2022/11/02 02:10:17;;;;;;;8.93;2.15;;;12.80;99.90;;;;;;5100460;27;20177;-74
2022/11/02 02:12:43;;;;;;;8.95;2.42;;;12.80;99.90;;;;;;5091556;27;20051;-77
2022/11/02 02:15:10;;;;;;;11.55;2.03;;;12.80;99.90;;;;;;5088701;28;20483;-78
2022/11/02 02:17:54;;;;;;;10.40;1.80;;;12.80;99.90;;;;;;5087519;28;20023;-75
2022/11/02 02:20:39;;;;;;;10.00;1.98;;;12.80;99.90;;;;;;5091215;27;20020;-76
2022/11/02 02:23:33;;;;;;;10.07;2.00;;;12.80;99.90;;;;;;5089961;28;20088;-75
2022/11/02 02:26:36;;;;;;;9.75;2.25;;;12.80;99.90;;;;;;5089235;28;20046;-75
2022/11/02 02:29:18;;;;;;;10.25;2.03;;;12.80;99.90;;;;;;5108414;27;20042;-76
2022/11/02 02:32:13;;;;;;;10.15;1.90;;;12.90;99.90;;;;;;5088702;28;20027;-76
2022/11/02 02:34:53;;;;;;;11.20;1.95;;;12.80;99.90;;;;;;5102277;27;20024;-78
2022/11/02 02:37:27;;;;;;;11.00;1.95;;;12.90;99.90;;;;;;5104644;27;20020;-75
2022/11/02 02:40:12;;;;;;;6.65;1.85;;;12.90;99.90;;;;;;5090715;27;20436;-75
2022/11/02 02:42:51;;;;;;;8.80;1.88;;;12.90;99.90;;;;;;5088406;28;20815;-76
2022/11/02 02:45:34;;;;;;;6.75;2.08;;;12.90;99.90;;;;;;5106155;27;20088;-77
2022/11/02 02:48:11;;;;;;;11.68;2.65;;;12.90;99.90;;;;;;5107824;27;20032;-76
2022/11/02 02:50:45;;;;;;;10.02;1.70;;;12.90;99.90;;;;;;5106427;28;20462;-76
2022/11/02 02:53:13;;;;;;;6.07;1.60;;;12.90;99.90;;;;;;5109272;27;20032;-75
2022/11/02 02:55:44;;;;;;;8.77;2.20;;;12.90;99.90;;;;;;5088075;28;20030;-76
2022/11/02 02:58:16;;;;;;;9.68;2.70;;;12.90;99.90;;;;;;5100480;27;20400;-78
2022/11/02 03:00:43;;;;;;;14.77;2.47;;;12.90;99.90;;;;;;5088726;28;20024;-75
2022/11/02 03:03:16;;;;;;;9.40;1.90;;;12.90;99.90;;;;;;5103437;27;20032;-78
2022/11/02 03:05:42;;;;;;;6.38;1.85;;;12.90;99.90;;;;;;5101592;28;20020;-77
2022/11/02 03:08:14;;;;;;;8.15;2.08;;;12.90;99.90;;;;;;5096895;27;20020;-76
2022/11/02 03:10:48;;;;;;;7.65;2.00;;;12.90;99.90;;;;;;5106821;27;20030;-77
2022/11/02 03:13:19;;;;;;;10.98;2.22;;;12.90;99.90;;;;;;5083340;28;20119;-75
2022/11/02 03:15:58;;;;;;;10.90;2.28;;;12.90;99.90;;;;;;5085412;27;20023;-75
2022/11/02 03:18:43;;;;;;;14.68;3.10;;;12.90;99.90;;;;;;5086155;28;20136;-75
2022/11/02 03:21:52;;;;;;;10.20;2.13;;;12.90;99.90;;;;;;5085942;28;20043;-75
2022/11/02 03:24:26;;;;;;;7.55;1.90;;;12.90;99.90;;;;;;5041512;28;20033;-75
2022/11/02 03:27:19;;;;;;;12.02;2.00;;;12.90;99.90;;;;;;5025713;28;20115;-76
2022/11/02 03:30:06;;;;;;;11.63;2.22;;;12.90;99.90;;;;;;5029551;28;20358;-75
2022/11/02 03:32:50;;;;;;;12.82;2.40;;;12.90;99.90;;;;;;5041627;28;20087;-76
2022/11/02 03:35:31;;;;;;;11.55;1.83;;;12.90;99.90;;;;;;5041494;28;20044;-75
2022/11/02 03:38:03;;;;;;;8.07;2.17;;;12.80;99.90;;;;;;5006300;28;20177;-75
2022/11/02 03:40:34;;;;;;;9.95;1.75;;;12.90;99.90;;;;;;5039335;28;20037;-75
2022/11/02 03:43:01;;;;;;;10.32;2.33;;;12.90;99.90;;;;;;5039012;28;20084;-77
2022/11/02 03:45:34;;;;;;;12.85;1.85;;;12.90;99.90;;;;;;5038337;28;20116;-75
2022/11/02 03:48:03;;;;;;;8.60;1.95;;;12.90;99.90;;;;;;5037069;28;20033;-75
2022/11/02 03:50:28;;;;;;;8.27;1.70;;;12.90;99.90;;;;;;5042939;28;20109;-74
2022/11/02 03:53:21;;;;;;;8.45;1.95;;;12.90;99.90;;;;;;5025288;28;20148;-75
2022/11/02 03:55:51;;;;;;;6.80;1.95;;;12.90;99.90;;;;;;5092084;28;20032;-75
2022/11/02 03:58:17;;;;;;;10.70;2.17;;;12.90;99.90;;;;;;5101571;27;20079;-77
2022/11/02 04:00:51;;;;;;;9.88;1.73;;;12.90;99.90;;;;;;5087704;28;20055;-76
2022/11/02 04:03:19;;;;;;;17.55;2.30;;;12.90;99.90;;;;;;5078397;28;20032;-76
2022/11/02 04:05:45;;;;;;;8.70;2.05;;;12.90;99.90;;;;;;5088810;28;20020;-75
2022/11/02 04:08:22;;;;;;;14.85;2.30;;;12.90;99.90;;;;;;5082896;28;20024;-76
2022/11/02 04:16:19;;;;;;;9.48;1.95;;;12.80;99.90;;;;;;5083329;28;20028;-75
2022/11/02 04:21:30;;;;;;;7.75;1.92;;;12.90;99.90;;;;;;5089182;28;20039;-75
2022/11/02 04:26:40;;;;;;;13.68;2.45;;;12.80;99.90;;;;;;5096900;27;20024;-75
2022/11/02 04:29:05;;;;;;;9.82;2.42;;;12.80;99.90;;;;;;5103920;27;20027;-75
2022/11/02 04:31:31;;;;;;;11.52;2.00;;;12.80;99.90;;;;;;5095119;28;20403;-75
2022/11/02 04:33:58;;;;;;;8.57;2.15;;;12.80;99.90;;;;;;5089322;28;20111;-75
2022/11/02 04:36:28;;;;;;;6.85;1.92;;;12.80;99.90;;;;;;5101304;28;20020;-75
2022/11/02 04:38:54;;;;;;;9.77;1.80;;;12.80;99.90;;;;;;5102611;28;20115;-75
2022/11/02 04:41:41;;;;;;;10.35;1.50;;;12.80;99.90;;;;;;5101301;28;20107;-75
2022/11/02 04:44:13;;;;;;;9.70;2.22;;;12.70;99.90;;;;;;5096028;28;20051;-78
2022/11/02 04:46:40;;;;;;;11.07;2.67;;;12.70;99.90;;;;;;5072377;28;20038;-75
2022/11/02 04:49:07;;;;;;;9.63;2.40;;;12.60;99.90;;;;;;5084954;28;20418;-75
2022/11/02 04:51:34;;;;;;;6.80;2.03;;;12.60;99.90;;;;;;5100271;28;20027;-74
2022/11/02 04:54:01;;;;;;;9.20;2.20;;;12.60;99.90;;;;;;5083467;28;20016;-75
2022/11/02 04:56:29;;;;;;;7.85;2.22;;;12.60;99.90;;;;;;5096006;28;20027;-80
2022/11/02 04:58:56;;;;;;;9.98;2.00;;;12.60;99.90;;;;;;5101566;28;20038;-76
2022/11/02 05:01:26;;;;;;;10.00;1.75;;;12.60;99.90;;;;;;5099712;28;20024;-76
2022/11/02 05:03:53;;;;;;;10.05;2.42;;;12.60;99.90;;;;;;5108648;27;20073;-75
2022/11/02 05:06:21;;;;;;;13.10;1.85;;;12.60;99.90;;;;;;5104701;28;20028;-77
2022/11/02 05:08:46;;;;;;;10.07;2.28;;;12.60;99.90;;;;;;5090766;28;20038;-75
2022/11/02 05:11:12;;;;;;;11.65;1.95;;;12.60;99.90;;;;;;5098859;28;20028;-76
2022/11/02 05:13:39;;;;;;;10.07;2.10;;;12.60;99.90;;;;;;5106522;27;20024;-76
2022/11/02 05:16:06;;;;;;;14.75;2.55;;;12.60;99.90;;;;;;5084565;28;20024;-78
2022/11/02 05:18:32;;;;;;;11.40;2.40;;;12.50;99.90;;;;;;5086208;28;20051;-75
2022/11/02 05:21:00;;;;;;;10.88;2.53;;;12.50;99.90;;;;;;5101367;27;20023;-76
2022/11/02 05:23:27;;;;;;;8.52;2.50;;;12.50;99.90;;;;;;5086522;28;20042;-76
2022/11/02 05:25:56;;;;;;;6.72;1.95;;;12.50;99.90;;;;;;5084105;28;20126;-74
2022/11/02 05:28:23;;;;;;;12.80;2.42;;;12.50;99.90;;;;;;5092223;28;20023;-75
2022/11/02 05:30:49;;;;;;;12.30;2.05;;;12.50;99.90;;;;;;5094301;28;20020;-74
2022/11/02 05:33:15;;;;;;;7.93;2.42;;;12.60;99.90;;;;;;5088412;28;20027;-74
2022/11/02 05:35:41;;;;;;;12.18;2.78;;;12.50;99.90;;;;;;5093406;27;20550;-73
2022/11/02 05:38:08;;;;;;;9.43;2.50;;;12.50;99.90;;;;;;5100326;27;20130;-75
2022/11/02 05:40:36;;;;;;;9.43;2.20;;;12.50;99.90;;;;;;5101596;28;20040;-75
2022/11/02 05:43:03;;;;;;;9.30;2.08;;;12.50;99.90;;;;;;5103196;27;20134;-75
2022/11/02 05:45:29;;;;;;;9.50;1.95;;;12.50;99.90;;;;;;5093180;28;20054;-75
2022/11/02 05:47:55;;;;;;;11.30;2.10;;;12.40;99.90;;;;;;5087940;28;20035;-75
2022/11/02 05:50:21;;;;;;;9.50;2.63;;;12.40;99.90;;;;;;5101608;27;20028;-75
2022/11/02 05:52:47;;;;;;;12.85;2.42;;;12.30;99.90;;;;;;5101836;27;20028;-75
2022/11/02 05:55:13;;;;;;;11.50;2.15;;;12.30;99.90;;;;;;5107623;27;20020;-75
2022/11/02 05:57:38;;;;;;;13.73;2.22;;;12.30;99.90;;;;;;5097612;28;20020;-77
2022/11/02 06:00:06;;;;;;;11.43;2.30;;;12.30;99.90;;;;;;5096166;27;20039;-76
2022/11/02 06:02:33;;;;;;;9.52;2.42;;;12.30;99.90;;;;;;5095620;28;20116;-75
2022/11/02 06:04:59;;;;;;;13.02;2.65;;;12.30;99.90;;;;;;5087887;28;20039;-74
2022/11/02 06:07:25;;;;;;;14.80;3.03;;;12.30;99.90;;;;;;5102845;28;20046;-75
2022/11/02 06:09:51;;;;;;;8.32;2.47;;;12.30;99.90;;;;;;5099130;27;20035;-77
2022/11/02 06:12:17;;;;;;;12.48;3.40;;;12.40;99.90;;;;;;5099913;27;20035;-75
2022/11/02 06:14:42;;;;;;;11.40;2.30;;;12.40;99.90;;;;;;5088201;27;20499;-75
2022/11/02 06:17:08;;;;;;;10.80;1.92;;;12.50;99.90;;;;;;5105035;27;20103;-76
2022/11/02 06:19:34;;;;;;;7.22;1.95;;;12.50;99.90;;;;;;5101357;27;20479;-76
2022/11/02 06:21:59;;;;;;;10.00;2.45;;;12.50;99.90;;;;;;5091534;28;20066;-74
2022/11/02 06:24:25;;;;;;;7.50;1.88;;;12.50;99.90;;;;;;5082826;28;20402;-76
2022/11/02 06:26:51;;;;;;;9.65;2.00;;;12.60;99.90;;;;;;5079580;28;20036;-74
2022/11/02 06:29:17;;;;;;;8.60;1.73;;;12.60;99.90;;;;;;5067166;28;20043;-74
2022/11/02 06:31:43;;;;;;;10.15;1.83;;;12.60;99.90;;;;;;5098553;27;20359;-74
2022/11/02 06:34:08;;;;;;;8.43;1.80;;;12.60;99.90;;;;;;5098299;27;20677;-74
2022/11/02 06:36:34;;;;;;;10.13;3.25;;;12.60;99.90;;;;;;5091600;28;20034;-74
2022/11/02 06:39:00;;;;;;;12.10;1.95;;;12.60;99.90;;;;;;5102814;28;20027;-73
2022/11/02 06:41:26;;;;;;;9.23;2.67;;;12.60;99.90;;;;;;5092618;27;20069;-75
2022/11/02 06:43:51;;;;;;;6.82;1.95;;;12.60;99.90;;;;;;5102206;27;20059;-73
2022/11/02 06:46:17;;;;;;;12.52;2.38;;;12.80;99.90;;;;;;5098371;28;20110;-77
2022/11/02 06:48:46;;;;;;;9.30;1.80;;;12.90;99.90;;;;;;5100265;27;20055;-76
2022/11/02 06:51:12;;;;;;;11.02;2.33;;;12.80;99.90;;;;;;5086989;28;20118;-75
2022/11/02 06:53:37;;;;;;;11.18;2.03;;;12.70;99.90;;;;;;5092185;28;20448;-75
2022/11/02 06:56:03;;;;;;;13.75;2.17;;;12.70;99.90;;;;;;5104617;27;20023;-74
2022/11/02 06:58:30;;;;;;;12.40;2.05;;;12.70;99.90;;;;;;5097277;27;20032;-75
2022/11/02 07:00:59;;;;;;;11.88;2.00;;;12.70;99.90;;;;;;5081765;28;20016;-74
2022/11/02 07:03:25;;;;;;;9.90;2.58;;;12.70;99.90;;;;;;5081639;28;20040;-74
2022/11/02 07:05:51;;;;;;;16.88;3.33;;;12.70;99.90;;;;;;5104680;27;20062;-75
2022/11/02 07:08:19;;;;;;;12.63;2.65;;;12.70;99.90;;;;;;5101155;28;20426;-74
2022/11/02 07:10:45;;;;;;;10.55;2.55;;;12.70;99.90;;;;;;5088888;28;20057;-74
2022/11/02 07:13:11;;;;;;;17.15;2.40;;;12.70;99.90;;;;;;5088259;28;20384;-75
2022/11/02 07:15:37;;;;;;;10.05;2.15;;;12.70;99.90;;;;;;5105721;28;20065;-73
2022/11/02 07:18:04;;;;;;;13.02;3.10;;;12.60;99.90;;;;;;5092394;28;20490;-76
2022/11/02 07:20:31;;;;;;;8.85;2.58;;;12.60;99.90;;;;;;5107288;28;20453;-77
2022/11/02 07:22:59;;;;;;;10.02;2.08;;;12.60;99.90;;;;;;5086614;28;20024;-75
2022/11/02 07:25:26;;;;;;;15.52;2.53;;;12.50;99.90;;;;;;5102273;27;20019;-75
2022/11/02 07:27:52;;;;;;;13.10;2.50;;;12.50;99.90;;;;;;5086617;28;20489;-75
2022/11/02 07:30:20;;;;;;;14.77;2.65;;;12.60;99.90;;;;;;5086345;28;20028;-75
2022/11/02 07:32:46;;;;;;;9.90;2.15;;;12.60;99.90;;;;;;5098284;27;20024;-74
2022/11/02 07:35:13;;;;;;;12.55;2.35;;;12.70;99.90;;;;;;5105927;27;20282;-75
2022/11/02 07:37:40;;;;;;;13.40;2.67;;;12.70;99.90;;;;;;5089387;28;20022;-75
2022/11/02 07:40:08;;;;;;;15.68;3.15;;;12.70;99.90;;;;;;5100156;27;20020;-76
2022/11/02 07:42:34;;;;;;;10.63;2.42;;;12.80;99.90;;;;;;5096980;28;20577;-76
2022/11/02 07:45:00;;;;;;;6.55;2.10;;;12.80;99.90;;;;;;5100928;28;20088;-75
2022/11/02 07:47:26;;;;;;;11.45;2.17;;;12.80;99.90;;;;;;5082517;28;20036;-76
2022/11/02 07:49:52;;;;;;;11.23;2.50;;;12.80;99.90;;;;;;5100465;28;20107;-75
2022/11/02 07:52:17;;;;;;;11.02;2.35;;;12.90;99.90;;;;;;5097244;28;20107;-75
2022/11/02 07:54:43;;;;;;;9.27;2.17;;;12.90;99.90;;;;;;5097185;27;20496;-74
2022/11/02 07:57:09;;;;;;;10.73;2.20;;;12.90;99.90;;;;;;5096189;27;20020;-75
2022/11/02 07:59:35;;;;;;;14.23;3.08;;;12.90;99.90;;;;;;5105090;27;20027;-75
2022/11/02 08:02:01;;;;;;;12.40;2.40;;;13.00;99.90;;;;;;5106973;28;20479;-76
2022/11/02 08:04:28;;;;;;;9.00;2.33;;;13.10;99.90;;;;;;5105427;28;20451;-75
2022/11/02 08:06:56;;;;;;;13.45;2.50;;;13.10;99.90;;;;;;5086064;28;20023;-75
2022/11/02 08:09:22;;;;;;;9.00;2.67;;;13.10;99.90;;;;;;5099541;27;20096;-74
2022/11/02 08:11:48;;;;;;;11.73;2.20;;;13.10;99.90;;;;;;5098719;28;20024;-75
2022/11/02 08:14:13;;;;;;;13.30;2.08;;;13.10;99.90;;;;;;5108247;28;20019;-75
2022/11/02 08:16:39;;;;;;;8.95;1.92;;;13.20;99.90;;;;;;5090833;28;20020;-75
2022/11/02 08:19:05;;;;;;;14.23;2.65;;;13.10;99.90;;;;;;5105314;28;20091;-75
2022/11/02 08:21:31;;;;;;;13.52;2.30;;;13.10;99.90;;;;;;5090233;28;20138;-77
2022/11/02 08:23:56;;;;;;;12.70;2.40;;;13.10;99.90;;;;;;5098074;28;20491;-76
2022/11/02 08:26:22;;;;;;;16.75;2.60;;;13.10;99.90;;;;;;5107090;28;20034;-75
2022/11/02 08:28:48;;;;;;;16.63;2.40;;;13.10;99.90;;;;;;5104112;28;20037;-74
2022/11/02 08:31:15;;;;;;;16.00;2.72;;;13.20;99.90;;;;;;5104172;28;20069;-74
2022/11/02 08:33:45;;;;;;;14.82;2.35;;;13.20;99.90;;;;;;5075446;28;20027;-75
2022/11/02 08:36:11;;;;;;;9.63;1.85;;;13.30;99.90;;;;;;5088980;28;20024;-76
2022/11/02 08:38:38;;;;;;;10.02;2.20;;;13.30;99.90;;;;;;5102475;28;20012;-74
2022/11/02 08:41:04;;;;;;;7.85;2.28;;;13.30;99.90;;;;;;5088250;28;20024;-74
2022/11/02 08:43:30;;;;;;;12.05;2.03;;;13.30;99.90;;;;;;5094476;28;20077;-76
2022/11/02 08:45:58;;;;;;;8.80;1.63;;;13.30;99.90;;;;;;5085424;28;20103;-74
2022/11/02 08:48:25;;;;;;;10.07;2.50;;;13.30;99.90;;;;;;5106566;28;20020;-74
2022/11/02 08:50:51;;;;;;;10.95;2.30;;;13.40;99.90;;;;;;5108968;28;20020;-75
2022/11/02 08:53:17;;;;;;;14.07;2.50;;;13.40;99.90;;;;;;5088965;28;20027;-76
2022/11/02 08:55:45;;;;;;;11.77;1.80;;;13.40;99.90;;;;;;5090085;28;20031;-74
2022/11/02 08:58:11;;;;;;;10.88;2.40;;;13.40;99.90;;;;;;5086890;28;20024;-74
2022/11/02 09:00:38;;;;;;;9.38;2.00;;;13.50;99.90;;;;;;5083651;28;20122;-77
2022/11/02 09:03:08;;;;;;;18.45;2.58;;;13.50;99.90;;;;;;5099880;28;20038;-75
2022/11/02 09:05:59;;;;;;;7.75;2.33;;;13.50;99.90;;;;;;5112912;28;20167;-75
2022/11/02 09:08:26;;;;;;;11.07;2.90;;;13.60;99.90;;;;;;5064756;28;20373;-74
2022/11/02 09:10:52;;;;;;;8.70;1.92;;;13.50;99.90;;;;;;5101414;28;20027;-74
2022/11/02 09:13:23;;;;;;;7.95;2.22;;;13.50;99.90;;;;;;5104897;28;20099;-73
2022/11/02 09:15:50;;;;;;;;;;;13.50;99.90;;;;;;5106392;28;20039;-75
2022/11/02 09:18:15;;;;;;;14.25;2.30;;;13.40;99.90;;;;;;5079377;28;19915;-73
2022/11/02 09:20:41;;;;;;;6.40;1.60;;;13.50;99.90;;;;;;5108525;28;20019;-74
2022/11/02 09:23:07;;;;;;;12.90;2.35;;;13.50;99.90;;;;;;5091302;28;20024;-75
2022/11/02 09:25:32;;;;;;;15.25;3.03;;;13.50;99.90;;;;;;5092381;28;20133;-74
2022/11/02 09:27:58;;;;;;;9.18;2.08;;;13.50;99.90;;;;;;5091738;28;20097;-75
2022/11/02 09:30:25;;;;;;;12.77;2.20;;;13.50;99.90;;;;;;5100985;28;20624;-76
2022/11/02 09:33:02;;;;;;;11.00;2.13;;;13.50;99.90;;;;;;5099349;28;20024;-74
2022/11/02 09:35:33;;;;;;;10.23;1.85;;;13.50;99.90;;;;;;5112843;28;20024;-76
2022/11/02 09:37:59;;;;;;;11.30;2.30;;;13.50;99.90;;;;;;5090637;28;20082;-76
2022/11/02 09:40:52;;;;;;;10.70;2.17;;;13.50;99.90;;;;;;5104439;28;20024;-75
2022/11/02 09:43:20;;;;;;;12.40;1.80;;;13.60;99.90;;;;;;5076864;28;20513;-75
2022/11/02 09:45:58;;;;;;;12.80;2.60;;;13.60;99.90;;;;;;5103850;28;20023;-75
2022/11/02 09:48:30;;;;;;;9.80;2.13;;;13.60;99.90;;;;;;5102217;28;20024;-75
2022/11/02 09:51:05;;;;;;;9.13;1.67;;;13.60;99.90;;;;;;5096716;28;20098;-75
2022/11/02 09:53:42;;;;;;;11.18;1.92;;;13.60;99.90;;;;;;5081053;28;20027;-75
2022/11/02 09:56:09;;;;;;;14.20;2.47;;;13.60;99.90;;;;;;5096773;28;20084;-75
2022/11/02 09:58:38;;;;;;;14.27;1.90;;;13.60;99.90;;;;;;5106798;28;20031;-76
2022/11/02 10:01:36;;;;;;;8.43;1.77;;;13.60;99.90;;;;;;5086599;28;20521;-75
2022/11/02 10:04:24;;;;;;;5.60;2.00;;;13.60;99.90;;;;;;5092630;28;20096;-75
2022/11/02 10:06:59;;;;;;;8.55;2.00;;;13.60;99.90;;;;;;5095083;27;20492;-75
2022/11/02 10:09:38;;;;;;;8.73;2.35;;;13.60;99.90;;;;;;5073789;28;20090;-74
2022/11/02 10:12:13;;;;;;;6.82;1.73;;;13.60;99.90;;;;;;5101789;28;20087;-74
2022/11/02 10:14:51;;;;;;;13.50;2.10;;;13.50;99.90;;;;;;5101223;28;20367;-75
2022/11/02 10:17:29;;;;;;;11.80;2.15;;;13.50;99.90;;;;;;5092894;28;20442;-74
2022/11/02 10:19:58;;;;;;;14.70;2.80;;;13.40;99.90;;;;;;5102145;28;20024;-74
2022/11/02 10:22:31;;;;;;;13.68;3.03;;;13.20;99.90;;;;;;5081699;28;20077;-74
2022/11/02 10:24:58;;;;;;;11.13;2.80;;;12.90;99.90;;;;;;5092407;28;20415;-74
2022/11/02 10:27:35;;;;;;;11.98;2.17;;;12.80;99.90;;;;;;5101386;28;20036;-75
2022/11/02 10:30:13;;;;;;;9.85;2.30;;;12.80;99.90;;;;;;5087165;28;20020;-74
2022/11/02 10:32:39;;;;;;;7.43;2.15;;;12.70;99.90;;;;;;5087102;28;20035;-74
2022/11/02 10:35:19;;;;;;;4.15;1.50;;;12.60;99.90;;;;;;5094023;28;20111;-74
2022/11/02 10:37:50;;;;;;;5.85;1.55;;;12.60;99.90;;;;;;5102964;28;20027;-76
2022/11/02 10:40:25;;;;;;;10.95;1.80;;;12.60;99.90;;;;;;5088855;28;20250;-76
2022/11/02 10:43:02;;;;;;;6.18;1.88;;;12.60;99.90;;;;;;5087974;28;20387;-75
2022/11/02 10:45:40;;;;;;;8.43;2.08;;;12.60;99.90;;;;;;5092275;28;20027;-75
2022/11/02 10:48:17;;;;;;;9.65;1.90;;;12.70;99.90;;;;;;5099214;28;20031;-74
2022/11/02 10:50:55;;;;;;;10.43;1.80;;;12.80;99.90;;;;;;5105856;28;20016;-73
2022/11/02 10:53:21;;;;;;;10.13;2.30;;;12.90;99.90;;;;;;5084081;28;20023;-76
2022/11/02 10:56:02;;;;;;;12.57;2.40;;;13.10;99.90;;;;;;5068549;28;20177;-76
2022/11/02 10:58:31;;;;;;;10.20;2.05;;;13.20;99.90;;;;;;5088756;28;20020;-75
2022/11/02 11:01:11;;;;;;;8.55;2.30;;;13.30;99.90;;;;;;5088783;28;20127;-76
2022/11/02 11:04:04;;;;;;;7.38;1.85;;;13.20;99.90;;;;;;5096531;28;20024;-75
2022/11/02 11:06:38;;;;;;;15.52;2.70;;;13.20;99.90;;;;;;5087026;28;20067;-76
2022/11/02 11:09:17;;;;;;;7.95;1.75;;;13.20;99.90;;;;;;5088240;28;20038;-76
2022/11/02 11:11:52;;;;;;;9.48;1.92;;;13.20;99.90;;;;;;5068684;28;20036;-75
2022/11/02 11:14:20;;;;;;;7.47;1.52;;;13.30;99.90;;;;;;5099281;28;20028;-76
2022/11/02 11:16:58;;;;;;;10.27;2.25;;;13.30;99.90;;;;;;5101593;27;20024;-75
2022/11/02 11:19:35;;;;;;;8.98;2.10;;;13.30;99.90;;;;;;5099942;27;20111;-76
2022/11/02 11:22:02;;;;;;;10.07;1.52;;;13.20;99.90;;;;;;5084795;28;20376;-75
2022/11/02 11:24:30;;;;;;;9.20;1.55;;;13.20;99.90;;;;;;5100194;28;20020;-75
2022/11/02 11:27:11;;;;;;;6.85;1.13;;;13.20;99.90;;;;;;5092785;28;20076;-76
2022/11/02 11:29:39;;;;;;;7.63;1.40;;;13.20;99.90;;;;;;5101286;28;20466;-75
2022/11/02 11:32:14;;;;;;;9.93;1.92;;;13.30;99.90;;;;;;5095993;28;20133;-75
2022/11/02 11:34:45;;;;;;;8.60;1.25;;;13.30;99.90;;;;;;5100072;28;20031;-76
2022/11/02 11:37:12;;;;;;;;;;;13.30;99.90;;;;;;5085633;28;20024;-75
2022/11/02 11:39:41;;;;;;;4.25;1.08;;;13.30;99.90;;;;;;5088799;28;20031;-76
2022/11/02 11:42:22;;;;;;;5.68;1.00;;;13.30;99.90;;;;;;5102410;28;20032;-77
2022/11/02 11:45:06;;;;;;;8.48;1.40;;;13.30;99.90;;;;;;5093711;28;20541;-77
2022/11/02 11:47:37;;;;;;;7.85;1.40;;;13.30;99.90;;;;;;5106258;28;20024;-76
2022/11/02 11:50:30;;;;;;;6.05;1.35;;;13.40;99.90;;;;;;5089648;28;20028;-76
2022/11/02 11:53:28;;;;;;;5.78;1.55;;;13.30;99.90;;;;;;5097119;28;20453;-76
2022/11/02 11:55:58;;;;;;;10.05;1.80;;;13.30;99.90;;;;;;5101821;27;20016;-75
2022/11/02 11:58:25;;;;;;;11.30;1.38;;;13.30;99.90;;;;;;5107960;28;20019;-76
2022/11/02 12:01:02;;;;;;;5.93;1.40;;;13.20;99.90;;;;;;5102652;28;20454;-76
2022/11/02 12:03:28;;;;;;;8.13;2.00;;;13.20;99.90;;;;;;5088836;28;20031;-75
2022/11/02 12:06:33;;;;;;;5.18;1.20;;;13.10;99.90;;;;;;5108247;28;20403;-75
2022/11/02 12:09:04;;;;;;;5.55;1.20;;;13.00;99.90;;;;;;5085696;28;20406;-75
2022/11/02 12:12:06;;;;;;;7.57;1.63;;;12.90;99.90;;;;;;5100888;28;20121;-75
2022/11/02 12:14:55;;;;;;;9.05;1.70;;;12.80;99.90;;;;;;5087554;28;20031;-74
2022/11/02 12:17:27;;;;;;;5.13;0.98;;;12.80;99.90;;;;;;5102210;28;20027;-75
2022/11/02 12:20:30;;;;;;;4.93;1.30;;;12.70;99.90;;;;;;5094552;28;20094;-75
2022/11/02 12:22:58;;;;;;;5.28;1.35;;;12.70;99.90;;;;;;5105286;28;20031;-75
2022/11/02 12:25:47;;;;;;;7.10;1.20;;;12.60;99.90;;;;;;5091745;28;20031;-75
2022/11/02 12:28:47;;;;;;;7.35;1.92;;;12.70;99.90;;;;;;5073777;28;20384;-75
2022/11/02 12:31:27;;;;;;;6.00;1.63;;;12.70;99.90;;;;;;5090525;28;20027;-74
2022/11/02 12:33:56;;;;;;;9.73;1.75;;;12.60;99.90;;;;;;5107852;28;20022;-74
2022/11/02 12:36:46;;;;;;;7.75;1.38;;;12.70;99.90;;;;;;5106936;28;20020;-75
2022/11/02 12:39:30;;;;;;;9.43;1.55;;;12.70;99.90;;;;;;5107464;28;20111;-76
2022/11/02 12:42:26;;;;;;;6.05;1.60;;;12.70;99.90;;;;;;5089009;28;20116;-74
2022/11/02 12:45:01;;;;;;;6.13;1.48;;;12.70;99.90;;;;;;5094597;28;20038;-74
2022/11/02 12:47:45;;;;;;;7.28;1.83;;;12.80;99.90;;;;;;5076273;28;20032;-75
2022/11/02 12:50:49;;;;;;;7.13;1.50;;;12.80;99.90;;;;;;5100135;28;20047;-75
2022/11/02 12:53:54;;;;;;;5.55;1.42;;;12.80;99.90;;;;;;5097161;28;20077;-74
2022/11/02 12:56:27;;;;;;;6.38;1.73;;;12.90;99.90;;;;;;5088057;28;20023;-76
2022/11/02 12:58:54;;;;;;;7.63;1.65;;;12.90;99.90;;;;;;5098619;28;20126;-76
2022/11/02 13:01:26;;;;;;;5.47;1.20;;;12.90;99.90;;;;;;5094883;28;20032;-73
2022/11/02 13:04:10;;;;;;;6.15;1.30;;;13.00;99.90;;;;;;5103882;28;20035;-74
2022/11/02 13:06:43;;;;;;;10.48;1.70;;;13.00;99.90;;;;;;5083491;28;20102;-74
2022/11/02 13:09:31;;;;;;;8.77;1.83;;;13.00;99.90;;;;;;5097825;28;20112;-73
2022/11/02 13:12:11;;;;;;;10.30;1.50;;;13.00;99.90;;;;;;5105947;28;20062;-76
2022/11/02 13:14:48;;;;;;;10.77;1.75;;;13.00;99.90;;;;;;5078827;28;20027;-74
2022/11/02 13:17:22;;;;;;;7.55;1.85;;;13.00;99.90;;;;;;5098747;28;20499;-76